Time;durP1;ratioP1;P1;durP2;ratioP2;P2;SDS_P1;SDS_P2;PMS_P1;PMS_P2;Temp;Humidity;BMP_temperature;BMP_pressure;BME280_temperature;BME280_humidity;BME280_pressure;Samples;Min_cycle;Max_cycle;Signal;HPM_P1;HPM_P2
2022/12/24 15:03:13;;;;;;;24.73;6.28;;;9.90;85.00;;;;;;5111336;27;20105;-64
2022/12/24 15:05:40;;;;;;;39.38;7.72;;;9.90;85.60;;;;;;5093092;28;20024;-61
2022/12/24 15:08:58;;;;;;;22.05;7.93;;;9.90;85.50;;;;;;5111496;28;20024;-63
2022/12/24 15:11:24;;;;;;;29.60;7.10;;;9.90;85.60;;;;;;5106751;28;20042;-64
2022/12/24 15:13:58;;;;;;;21.98;6.35;;;9.90;85.50;;;;;;5110895;28;20024;-62
2022/12/24 15:16:25;;;;;;;31.75;8.07;;;9.80;85.40;;;;;;5110928;28;20024;-65
2022/12/24 15:19:15;;;;;;;23.25;6.20;;;9.80;85.50;;;;;;5109208;28;20020;-63
2022/12/24 15:21:42;;;;;;;38.65;7.63;;;9.80;85.50;;;;;;5107861;28;20036;-64
2022/12/24 15:24:32;;;;;;;31.55;8.90;;;9.80;85.10;;;;;;5110648;28;20020;-62
2022/12/24 15:26:58;;;;;;;23.13;7.32;;;9.80;85.20;;;;;;5110831;28;20020;-63
2022/12/24 15:29:41;;;;;;;25.88;8.32;;;9.80;84.90;;;;;;5110938;28;20437;-64
2022/12/24 15:32:15;;;;;;;23.35;7.22;;;9.80;85.00;;;;;;5110599;28;20027;-62
2022/12/24 15:34:43;;;;;;;19.70;7.00;;;9.70;85.00;;;;;;5110751;28;20046;-62
2022/12/24 15:37:29;;;;;;;14.43;6.78;;;9.80;84.90;;;;;;5110567;28;20475;-62
2022/12/24 15:40:20;;;;;;;31.48;7.85;;;9.60;85.30;;;;;;5110597;28;20032;-63
2022/12/24 15:42:46;;;;;;;23.48;7.97;;;9.50;85.50;;;;;;5107639;28;20050;-62
2022/12/24 15:45:19;;;;;;;35.53;9.10;;;9.50;85.60;;;;;;5110360;28;20376;-61
2022/12/24 15:48:07;;;;;;;22.67;7.25;;;9.50;85.70;;;;;;5110074;28;20019;-61
2022/12/24 15:50:42;;;;;;;24.02;8.68;;;9.40;85.80;;;;;;5110249;28;20066;-62
2022/12/24 15:53:15;;;;;;;26.75;8.48;;;9.40;86.20;;;;;;5110012;28;20099;-61
2022/12/24 15:55:46;;;;;;;30.10;8.25;;;9.40;86.30;;;;;;5109967;28;20103;-61
2022/12/24 15:58:21;;;;;;;31.67;7.60;;;9.30;86.40;;;;;;5110010;28;20059;-62
2022/12/24 16:01:05;;;;;;;22.80;8.00;;;9.30;86.50;;;;;;5110063;28;20061;-63
2022/12/24 16:03:31;;;;;;;28.92;7.88;;;9.20;86.80;;;;;;5108760;28;20016;-62
2022/12/24 16:06:04;;;;;;;32.75;10.30;;;9.00;87.10;;;;;;5109910;28;20020;-63
2022/12/24 16:08:32;;;;;;;35.33;8.32;;;8.90;87.50;;;;;;5108531;28;20024;-63
2022/12/24 16:11:17;;;;;;;24.10;9.05;;;9.00;87.90;;;;;;5108560;28;20024;-62
2022/12/24 16:14:11;;;;;;;26.10;9.02;;;9.00;88.00;;;;;;5100695;28;20365;-61
2022/12/24 16:16:40;;;;;;;21.90;7.75;;;9.00;87.90;;;;;;5093273;28;20039;-63
2022/12/24 16:19:15;;;;;;;19.90;9.02;;;8.90;87.80;;;;;;5096687;28;20020;-62
2022/12/24 16:21:41;;;;;;;29.70;7.80;;;9.00;87.90;;;;;;5094727;28;20039;-62
2022/12/24 16:24:13;;;;;;;24.98;9.27;;;8.90;87.80;;;;;;5095568;28;20020;-64
2022/12/24 16:26:40;;;;;;;26.77;8.82;;;8.90;88.30;;;;;;5095745;28;20028;-63
2022/12/24 16:29:06;;;;;;;24.88;9.25;;;8.80;88.00;;;;;;5096171;28;20528;-63
2022/12/24 16:31:57;;;;;;;29.58;10.60;;;8.80;88.60;;;;;;5095807;28;20024;-62
2022/12/24 16:34:26;;;;;;;32.40;9.77;;;8.90;88.50;;;;;;5095647;28;20028;-63
2022/12/24 16:36:51;;;;;;;28.77;9.60;;;8.80;88.60;;;;;;5094446;28;20024;-63
2022/12/24 16:39:22;;;;;;;30.00;8.63;;;8.70;88.60;;;;;;5095839;28;20062;-62
2022/12/24 16:44:37;;;;;;;31.38;8.55;;;8.60;89.20;;;;;;5096172;28;20424;-63
2022/12/24 16:47:10;;;;;;;28.80;9.50;;;8.50;89.20;;;;;;5095533;28;20056;-62
2022/12/24 16:49:40;;;;;;;38.45;10.82;;;8.50;89.70;;;;;;5095442;28;20027;-63
2022/12/24 16:52:13;;;;;;;26.25;10.30;;;8.60;89.80;;;;;;5095550;28;20028;-64
2022/12/24 16:54:39;;;;;;;34.60;12.95;;;8.50;89.50;;;;;;5095813;28;20028;-63
2022/12/24 16:57:04;;;;;;;29.80;12.18;;;8.50;89.60;;;;;;5093789;28;20035;-63
2022/12/24 16:59:31;;;;;;;35.90;11.55;;;8.60;89.70;;;;;;5095178;28;20021;-62
2022/12/24 17:01:57;;;;;;;44.28;12.63;;;8.60;89.60;;;;;;5093374;28;20056;-63
2022/12/24 17:04:22;;;;;;;38.25;14.73;;;8.50;89.60;;;;;;5095025;28;20111;-62
2022/12/24 17:06:49;;;;;;;46.60;15.32;;;8.50;89.80;;;;;;5095019;28;20024;-65
2022/12/24 17:09:15;;;;;;;36.13;12.93;;;8.50;89.80;;;;;;5093707;28;20024;-64
2022/12/24 17:11:41;;;;;;;40.92;12.68;;;8.40;89.70;;;;;;5094690;28;20111;-63
2022/12/24 17:14:06;;;;;;;42.85;15.07;;;8.40;90.10;;;;;;5093725;28;20112;-63
2022/12/24 17:16:32;;;;;;;32.67;11.88;;;8.40;90.20;;;;;;5093323;28;20028;-62
2022/12/24 17:18:58;;;;;;;30.40;11.32;;;8.50;90.10;;;;;;5094566;28;20038;-62
2022/12/24 17:21:23;;;;;;;31.08;10.43;;;8.40;89.80;;;;;;5094471;28;20245;-63
2022/12/24 17:23:49;;;;;;;39.30;13.05;;;8.30;90.00;;;;;;5094472;28;20031;-64
2022/12/24 17:26:15;;;;;;;28.70;11.02;;;8.40;90.20;;;;;;5092234;28;20077;-63
2022/12/24 17:28:41;;;;;;;33.92;11.18;;;8.30;90.20;;;;;;5094484;28;20069;-62
2022/12/24 17:31:09;;;;;;;39.78;11.27;;;8.30;90.50;;;;;;5094463;28;20103;-62
2022/12/24 17:33:35;;;;;;;37.72;11.82;;;8.30;90.50;;;;;;5094183;28;20024;-62
2022/12/24 17:36:01;;;;;;;32.20;11.45;;;8.30;90.60;;;;;;5093091;28;20140;-63
2022/12/24 17:38:27;;;;;;;31.63;11.23;;;8.30;90.50;;;;;;5094309;28;20103;-63
2022/12/24 17:41:03;;;;;;;37.17;11.40;;;8.30;90.70;;;;;;5094308;28;20063;-63
2022/12/24 17:43:29;;;;;;;33.92;12.50;;;8.20;90.70;;;;;;5094184;28;20361;-63
2022/12/24 17:45:55;;;;;;;38.47;12.70;;;8.10;90.90;;;;;;5094301;28;20073;-63
2022/12/24 17:48:20;;;;;;;31.27;9.95;;;8.20;91.10;;;;;;5094296;28;20478;-62
2022/12/24 17:50:46;;;;;;;36.80;10.43;;;8.10;91.20;;;;;;5094083;28;20027;-62
2022/12/24 17:53:12;;;;;;;44.75;10.25;;;8.20;91.30;;;;;;5094328;28;20024;-62
2022/12/24 17:55:41;;;;;;;26.17;10.27;;;8.10;91.30;;;;;;5093977;28;20024;-62
2022/12/24 17:58:08;;;;;;;25.93;11.20;;;8.10;91.40;;;;;;5094155;28;20024;-62
2022/12/24 18:00:34;;;;;;;41.78;14.48;;;8.10;91.40;;;;;;5093745;28;20254;-63
2022/12/24 18:02:59;;;;;;;47.00;15.00;;;8.30;91.50;;;;;;5094077;28;20036;-62
2022/12/24 18:05:25;;;;;;;36.38;12.20;;;8.20;91.20;;;;;;5094199;28;20039;-62
2022/12/24 18:07:51;;;;;;;34.28;11.65;;;8.00;91.20;;;;;;5094556;28;20027;-62
2022/12/24 18:10:17;;;;;;;39.60;11.70;;;7.90;91.40;;;;;;5093798;28;20020;-62
2022/12/24 18:12:43;;;;;;;43.15;13.88;;;7.80;91.70;;;;;;5092059;28;20111;-63
2022/12/24 18:15:09;;;;;;;39.10;12.93;;;7.80;92.10;;;;;;5093719;28;20529;-62
2022/12/24 18:17:34;;;;;;;42.10;14.48;;;7.80;92.00;;;;;;5093557;28;20343;-62
2022/12/24 18:20:00;;;;;;;34.13;12.25;;;7.80;92.10;;;;;;5093848;28;20020;-66
2022/12/24 18:22:25;;;;;;;34.10;12.93;;;7.70;92.10;;;;;;5093498;28;20116;-63
2022/12/24 18:24:51;;;;;;;34.03;12.60;;;7.70;92.20;;;;;;5092212;28;20043;-65
2022/12/24 18:27:17;;;;;;;29.40;12.90;;;7.70;92.30;;;;;;5093737;28;20104;-64
2022/12/24 18:29:42;;;;;;;42.08;14.40;;;7.70;92.30;;;;;;5093287;28;20021;-63
2022/12/24 18:32:09;;;;;;;41.75;14.15;;;7.70;92.40;;;;;;5093572;28;20070;-63
2022/12/24 18:34:35;;;;;;;32.95;14.68;;;7.50;92.40;;;;;;5093337;28;20024;-63
2022/12/24 18:37:01;;;;;;;28.35;8.60;;;7.40;92.50;;;;;;5093053;28;20024;-63
2022/12/24 18:39:27;;;;;;;35.08;12.23;;;7.50;92.70;;;;;;5093439;28;20182;-63
2022/12/24 18:41:52;;;;;;;37.47;11.88;;;7.40;92.70;;;;;;5093390;28;20028;-63
2022/12/24 18:44:18;;;;;;;40.72;10.77;;;7.50;93.10;;;;;;5093220;28;20024;-63
2022/12/24 18:46:44;;;;;;;39.38;10.25;;;7.60;93.00;;;;;;5093222;28;20024;-64
2022/12/24 18:49:10;;;;;;;36.53;10.38;;;7.70;93.10;;;;;;5093502;28;20103;-61
2022/12/24 18:51:36;;;;;;;38.97;10.65;;;7.70;93.10;;;;;;5091990;28;20028;-62
2022/12/24 18:54:03;;;;;;;49.95;13.18;;;7.80;93.00;;;;;;5092002;28;20375;-62
2022/12/24 18:56:29;;;;;;;49.75;14.45;;;7.70;93.00;;;;;;5093019;28;20065;-62
2022/12/24 18:58:58;;;;;;;41.95;10.63;;;7.70;93.00;;;;;;5093492;28;20039;-63
2022/12/24 19:01:28;;;;;;;35.88;11.43;;;7.80;93.10;;;;;;5093051;28;20036;-63
2022/12/24 19:03:54;;;;;;;41.30;11.20;;;7.80;92.90;;;;;;5093180;28;20035;-63
2022/12/24 19:06:22;;;;;;;39.08;11.43;;;7.80;93.00;;;;;;5092395;28;20456;-63
2022/12/24 19:08:48;;;;;;;35.03;10.20;;;7.70;93.00;;;;;;5091883;28;20032;-63
2022/12/24 19:11:15;;;;;;;41.75;11.40;;;7.70;93.10;;;;;;5092958;28;20027;-63
2022/12/24 19:13:44;;;;;;;37.67;10.30;;;7.70;93.20;;;;;;5093425;28;20120;-62
2022/12/24 19:16:10;;;;;;;42.03;10.02;;;7.70;93.20;;;;;;5092957;28;20028;-62
2022/12/24 19:18:36;;;;;;;25.25;8.23;;;7.70;93.20;;;;;;5093414;28;20387;-62
2022/12/24 19:21:10;;;;;;;39.13;9.20;;;7.70;93.40;;;;;;5092949;28;20024;-64
2022/12/24 19:23:36;;;;;;;41.65;11.02;;;7.60;93.30;;;;;;5092918;28;20383;-64
2022/12/24 19:26:02;;;;;;;42.38;11.80;;;7.50;93.20;;;;;;5093020;28;20026;-63
2022/12/24 19:28:29;;;;;;;41.00;12.98;;;7.30;93.20;;;;;;5092924;28;20032;-62
2022/12/24 19:31:04;;;;;;;50.85;12.80;;;7.40;93.40;;;;;;5093327;28;20048;-62
2022/12/24 19:33:29;;;;;;;45.08;10.13;;;7.50;93.50;;;;;;5091589;28;20021;-62
2022/12/24 19:35:55;;;;;;;29.95;10.63;;;7.40;93.30;;;;;;5093046;28;20065;-63
2022/12/24 19:38:21;;;;;;;38.42;10.48;;;7.40;93.40;;;;;;5092778;28;20023;-62
2022/12/24 19:40:46;;;;;;;36.70;12.32;;;7.60;93.70;;;;;;5091382;28;20020;-63
2022/12/24 19:43:12;;;;;;;41.00;11.20;;;7.60;93.60;;;;;;5091733;28;20077;-63
2022/12/24 19:45:38;;;;;;;42.25;13.15;;;7.60;93.40;;;;;;5092638;28;20020;-63
2022/12/24 19:48:03;;;;;;;34.13;13.38;;;7.60;93.60;;;;;;5093549;28;20066;-64
2022/12/24 19:50:30;;;;;;;50.35;15.98;;;7.60;93.30;;;;;;5096178;28;20039;-62
2022/12/24 19:52:56;;;;;;;50.65;16.08;;;7.70;93.40;;;;;;5096121;28;20020;-64
2022/12/24 19:55:22;;;;;;;42.92;15.10;;;7.60;93.20;;;;;;5096504;28;20028;-62
2022/12/24 19:57:47;;;;;;;46.70;14.43;;;7.60;93.30;;;;;;5096773;28;20052;-62
2022/12/24 20:00:13;;;;;;;39.28;14.32;;;7.50;93.10;;;;;;5096501;28;20426;-63
2022/12/24 20:02:39;;;;;;;40.83;16.05;;;7.40;93.00;;;;;;5096023;28;20097;-62
2022/12/24 20:05:05;;;;;;;43.33;15.32;;;7.40;93.30;;;;;;5096557;28;20020;-62
2022/12/24 20:07:31;;;;;;;41.25;13.55;;;7.50;93.10;;;;;;5096223;28;20024;-63
2022/12/24 20:09:56;;;;;;;75.15;33.45;;;7.50;93.10;;;;;;5096340;28;20103;-62
2022/12/24 20:12:22;;;;;;;125.20;62.20;;;7.50;93.10;;;;;;5096207;28;20099;-62
2022/12/24 20:14:48;;;;;;;74.07;34.28;;;7.50;93.00;;;;;;5094638;28;20119;-62
2022/12/24 20:17:13;;;;;;;118.15;54.05;;;7.50;93.00;;;;;;5096401;28;20126;-62
2022/12/24 20:19:39;;;;;;;111.80;47.10;;;7.70;92.90;;;;;;5096436;28;20028;-63
2022/12/24 20:22:05;;;;;;;61.20;26.80;;;7.80;92.60;;;;;;5094722;28;20078;-61
2022/12/24 20:24:30;;;;;;;43.50;17.73;;;7.50;92.10;;;;;;5094818;28;20023;-63
2022/12/24 20:26:56;;;;;;;41.78;17.48;;;7.50;92.30;;;;;;5096174;28;20455;-63
2022/12/24 20:29:22;;;;;;;53.83;19.55;;;7.50;92.50;;;;;;5096172;28;20026;-63
2022/12/24 20:31:48;;;;;;;48.00;17.75;;;7.50;92.80;;;;;;5095607;28;20038;-62
2022/12/24 20:34:14;;;;;;;83.25;24.17;;;7.70;93.20;;;;;;5096477;28;20111;-63
2022/12/24 20:36:39;;;;;;;55.97;20.20;;;7.80;93.20;;;;;;5095736;28;20539;-63
2022/12/24 20:39:06;;;;;;;48.35;17.52;;;7.80;93.10;;;;;;5095821;28;20035;-64
2022/12/24 20:41:32;;;;;;;45.70;17.77;;;7.90;93.20;;;;;;5094401;28;20024;-62
2022/12/24 20:43:59;;;;;;;50.55;17.17;;;7.90;93.30;;;;;;5095695;28;20078;-63
2022/12/24 20:46:26;;;;;;;54.70;16.15;;;8.10;93.30;;;;;;5094081;28;20422;-62
2022/12/24 20:48:51;;;;;;;43.58;16.17;;;8.00;93.00;;;;;;5094211;28;20020;-63
2022/12/24 20:51:20;;;;;;;44.00;15.32;;;8.10;93.00;;;;;;5094191;28;20024;-62
2022/12/24 20:53:46;;;;;;;39.97;16.55;;;8.10;93.00;;;;;;5094101;28;20459;-63
2022/12/24 20:56:16;;;;;;;48.80;13.70;;;8.10;93.00;;;;;;5095436;28;20023;-62
2022/12/24 20:58:42;;;;;;;38.10;12.18;;;8.20;92.80;;;;;;5093865;28;20028;-62
